Airfield :
LOGIN :

Register | Disclaimer

   EN    FR    IT 

 










Legend :    VFR   Marginal VFR   IFR   Intensive IFR   Very Intensive IFR
Visi :
Ceiling :
>= 8 km
>= 3000ft
5 to 8 km
1000 to 3000 ft
1500m to 5 km
500 to 1000 ft
800 to 1500m
200 to 500 ft
< 800m
< 200 ft
Symbols :   Thunderstorms  Fog  Heavy snow  Heavy precipitations  Wind > 20 kt
SIGMETs :     Misc.  Thunderstorms  Icing  Turbulence  Mountain Waves  Volcanic Ashes






- Airport Elevation : 138 ft
- IATA code : BIO


LEBB - Bilbao

CURRENT METAR :
  • 131500Z 31008KT 270V350 9999 FEW027 OVC035 22/16 Q1018 NOSIG

EXPIRED METARs :
  • 131430Z 33008KT 280V010 9999 FEW023 SCT029 OVC034 22/17 Q1018 NOSIG
  • 131400Z 32008KT 280V340 9999 FEW024 OVC035 22/17 Q1018 NOSIG
  • 131330Z 32007KT 290V360 9999 FEW021 OVC034 22/17 Q1018 NOSIG
  • 131300Z 32006KT 280V020 9999 OVC036 22/17 Q1018 NOSIG
  • 131230Z 32009KT 290V350 9999 BKN038 22/17 Q1018 NOSIG

TAF TAF LEBB
Valid from the 13 at 12:00 until the 14 at 12:00 UTC


131100Z 1312/1412 VRB05KT 9999 SCT030 TX23/1312Z TN15/1405Z
TEMPO 1312/1319 32010KT
PROB30
TEMPO 1400/1406 3000 BR



MET'MAP, your aeronautical weather chart ! - Copyright ORBIFLY December 2007 - Disclaimer

ORBIFLY MET'MAP TEAM :

Programming & Development : Alexandra Zaïnal
Concept & original design : Baudouin d'Aumeries
Assistance for programming : Marc-Olivier Méhu
Technical & hardware support : Manuel Goepfert

Contact : metmap@orbifly.com




SOURCES & CREDITS :

   NOAA